createdAt,value
2017-10-29T00:00:30.929Z,80.64
2017-10-29T00:01:36.707Z,80.87
2017-10-29T00:02:43.223Z,81.06
2017-10-29T00:03:48.982Z,81.04
2017-10-29T00:04:55.014Z,81.15
2017-10-29T00:06:01.113Z,81.61
2017-10-29T00:07:06.885Z,81.30
2017-10-29T00:08:12.628Z,81.19
2017-10-29T00:09:18.375Z,80.92
2017-10-29T00:10:24.105Z,80.98
2017-10-29T00:11:29.874Z,80.72
2017-10-29T00:12:35.662Z,80.66
2017-10-29T00:13:41.317Z,80.21
2017-10-29T00:14:47.157Z,80.08
2017-10-29T00:15:52.938Z,80.25
2017-10-29T00:16:58.715Z,80.63
2017-10-29T00:18:05.224Z,80.78
2017-10-29T00:19:10.969Z,80.90
2017-10-29T00:20:16.723Z,80.64
2017-10-29T00:21:22.473Z,80.95
2017-10-29T00:22:28.244Z,80.78
2017-10-29T00:23:34.825Z,80.85
2017-10-29T00:24:40.581Z,80.93
2017-10-29T00:25:46.348Z,80.81
2017-10-29T00:26:52.094Z,80.62
2017-10-29T00:27:57.869Z,80.50
2017-10-29T00:29:04.398Z,80.48
2017-10-29T00:30:10.481Z,80.50
2017-10-29T00:31:16.224Z,80.09
2017-10-29T00:32:21.620Z,80.02
2017-10-29T00:33:27.414Z,79.91
2017-10-29T00:34:33.173Z,79.87
2017-10-29T00:35:38.917Z,79.99
2017-10-29T00:36:44.659Z,79.72
2017-10-29T00:37:50.408Z,80.11
2017-10-29T00:38:56.210Z,80.30
2017-10-29T00:40:02.708Z,80.41
2017-10-29T00:41:08.482Z,79.88
2017-10-29T00:42:13.896Z,79.89
2017-10-29T00:43:19.640Z,79.99
2017-10-29T00:44:25.426Z,80.16
2017-10-29T00:45:31.173Z,80.39
2017-10-29T00:46:36.915Z,80.82
2017-10-29T00:47:42.672Z,80.85
2017-10-29T00:48:48.420Z,80.51
2017-10-29T00:49:54.203Z,80.13
2017-10-29T00:50:59.943Z,80.15
2017-10-29T00:52:05.717Z,80.56
2017-10-29T00:53:11.457Z,80.59
2017-10-29T00:54:17.196Z,80.60
2017-10-29T00:55:22.967Z,80.23
2017-10-29T00:56:28.708Z,80.79
2017-10-29T00:57:34.452Z,80.94
2017-10-29T00:58:40.194Z,81.07
2017-10-29T00:59:46.024Z,81.00
2017-10-29T01:00:50.853Z,80.88
2017-10-29T01:01:55.911Z,81.03
2017-10-29T01:03:01.322Z,80.79
2017-10-29T01:04:06.365Z,80.80
2017-10-29T01:05:12.109Z,80.78
2017-10-29T01:06:17.893Z,80.65
2017-10-29T01:07:23.631Z,80.32
2017-10-29T01:08:29.433Z,80.17
2017-10-29T01:09:35.169Z,80.41
2017-10-29T01:10:40.932Z,80.36
2017-10-29T01:11:47.490Z,80.17
2017-10-29T01:12:53.233Z,80.33
2017-10-29T01:13:59.740Z,80.55
2017-10-29T01:15:05.500Z,80.73
2017-10-29T01:16:11.224Z,80.60
2017-10-29T01:17:17.039Z,80.84
2017-10-29T01:18:23.541Z,80.83
2017-10-29T01:19:29.285Z,81.12
2017-10-29T01:20:35.048Z,81.32
2017-10-29T01:21:40.795Z,81.45
2017-10-29T01:22:46.560Z,81.38
2017-10-29T01:23:53.070Z,81.56
2017-10-29T01:24:58.814Z,81.59
2017-10-29T01:26:04.208Z,81.60
2017-10-29T01:27:09.360Z,81.41
2017-10-29T01:28:15.129Z,81.36
2017-10-29T01:29:20.886Z,81.19
2017-10-29T01:30:26.631Z,81.19
2017-10-29T01:31:32.369Z,81.31
2017-10-29T01:32:38.115Z,81.20
2017-10-29T01:33:44.656Z,81.58
2017-10-29T01:34:50.392Z,81.96
2017-10-29T01:35:56.176Z,81.66
2017-10-29T01:37:02.669Z,81.78
2017-10-29T01:38:08.408Z,81.94
2017-10-29T01:39:14.234Z,82.31
2017-10-29T01:40:19.968Z,82.21
2017-10-29T01:41:25.759Z,82.41
2017-10-29T01:42:30.566Z,82.63
2017-10-29T01:43:36.308Z,82.88
2017-10-29T01:44:42.072Z,82.62
2017-10-29T01:45:47.821Z,83.09
2017-10-29T01:46:53.569Z,83.30
2017-10-29T01:48:00.068Z,84.02
2017-10-29T01:49:05.812Z,83.96
2017-10-29T01:50:11.584Z,84.15
2017-10-29T01:51:17.322Z,84.22
2017-10-29T01:52:23.841Z,84.54
2017-10-29T01:53:29.577Z,84.66
2017-10-29T01:54:35.324Z,84.69
2017-10-29T01:55:41.086Z,84.82
2017-10-29T01:56:46.826Z,85.04
2017-10-29T01:57:52.570Z,84.83
2017-10-29T01:58:58.320Z,84.60
2017-10-29T02:00:04.044Z,84.90
2017-10-29T02:01:09.817Z,85.01
2017-10-29T02:02:16.173Z,84.62
2017-10-29T02:03:23.420Z,84.67
2017-10-29T02:04:29.235Z,84.53
2017-10-29T02:05:34.981Z,84.06
2017-10-29T02:06:40.773Z,84.25
2017-10-29T02:07:46.513Z,84.24
2017-10-29T02:08:52.251Z,84.17
2017-10-29T02:09:58.000Z,84.19
2017-10-29T02:11:03.749Z,84.22
2017-10-29T02:12:09.509Z,84.24
2017-10-29T02:13:16.022Z,83.98
2017-10-29T02:14:21.782Z,84.07
2017-10-29T02:15:28.344Z,83.99
2017-10-29T02:16:34.161Z,83.98
2017-10-29T02:17:39.732Z,83.85
2017-10-29T02:18:45.472Z,83.75
2017-10-29T02:19:51.213Z,84.06
2017-10-29T02:20:56.957Z,84.05
2017-10-29T02:22:04.212Z,84.10
2017-10-29T02:23:09.979Z,83.94
2017-10-29T02:24:15.720Z,83.60
2017-10-29T02:25:21.468Z,83.42
2017-10-29T02:26:27.984Z,83.58
2017-10-29T02:27:33.728Z,83.63
2017-10-29T02:28:39.497Z,83.82
2017-10-29T02:29:45.233Z,83.56
2017-10-29T02:30:51.741Z,83.91
2017-10-29T02:31:57.477Z,84.17
2017-10-29T02:33:03.216Z,83.96
2017-10-29T02:34:08.982Z,83.88
2017-10-29T02:35:14.727Z,84.25
2017-10-29T02:36:20.457Z,84.52
2017-10-29T02:37:26.205Z,84.06
2017-10-29T02:38:31.936Z,84.11
2017-10-29T02:39:37.710Z,84.39
2017-10-29T02:40:43.445Z,84.38
2017-10-29T02:41:49.188Z,84.12
2017-10-29T02:42:55.184Z,83.95
2017-10-29T02:44:01.694Z,84.03
2017-10-29T02:45:07.456Z,84.20
2017-10-29T02:46:12.860Z,84.36
2017-10-29T02:47:18.595Z,83.85
2017-10-29T02:48:24.346Z,83.68
2017-10-29T02:49:30.085Z,83.64
2017-10-29T02:50:35.857Z,83.04
2017-10-29T02:51:43.100Z,83.40
2017-10-29T02:52:48.838Z,83.55
2017-10-29T02:53:54.582Z,83.64
2017-10-29T02:55:00.320Z,83.62
2017-10-29T02:56:05.872Z,83.66
2017-10-29T02:57:11.628Z,83.58
2017-10-29T02:58:17.361Z,83.70
2017-10-29T02:59:23.100Z,83.99
2017-10-29T03:00:28.845Z,83.68
2017-10-29T03:01:34.608Z,83.68
2017-10-29T03:02:41.139Z,83.50
2017-10-29T03:03:46.920Z,83.93
2017-10-29T03:04:53.436Z,85.09
2017-10-29T03:05:59.175Z,85.43
2017-10-29T03:07:04.970Z,84.87
2017-10-29T03:08:11.480Z,84.38
2017-10-29T03:09:17.220Z,84.21
2017-10-29T03:10:23.041Z,85.21
2017-10-29T03:11:28.553Z,85.11
2017-10-29T03:12:34.319Z,85.25
2017-10-29T03:13:40.063Z,85.64
2017-10-29T03:14:45.800Z,85.70
2017-10-29T03:15:51.546Z,86.18
2017-10-29T03:16:57.294Z,85.45
2017-10-29T03:18:03.048Z,85.46
2017-10-29T03:19:08.810Z,85.46
2017-10-29T03:20:14.553Z,84.98
2017-10-29T03:21:20.340Z,84.93
2017-10-29T03:22:26.086Z,84.92
2017-10-29T03:23:31.861Z,84.78
2017-10-29T03:24:37.606Z,85.55
2017-10-29T03:25:43.364Z,85.38
2017-10-29T03:26:49.102Z,84.98
2017-10-29T03:27:55.613Z,85.02
2017-10-29T03:29:01.376Z,84.85
2017-10-29T03:30:07.378Z,85.00
2017-10-29T03:31:13.886Z,85.07
2017-10-29T03:32:19.624Z,85.37
2017-10-29T03:33:25.368Z,85.34
2017-10-29T03:34:31.166Z,85.51
2017-10-29T03:35:37.655Z,85.90
2017-10-29T03:36:43.394Z,86.02
2017-10-29T03:37:49.137Z,85.70
2017-10-29T03:38:54.872Z,85.89
2017-10-29T03:40:00.637Z,85.92
2017-10-29T03:41:06.021Z,85.48
2017-10-29T03:42:11.757Z,85.12
2017-10-29T03:43:17.506Z,84.79
2017-10-29T03:44:23.248Z,84.31
2017-10-29T03:45:29.015Z,83.97
2017-10-29T03:46:34.749Z,83.22
2017-10-29T03:47:40.499Z,82.36
2017-10-29T03:48:46.239Z,81.97
2017-10-29T03:49:51.980Z,81.78
2017-10-29T03:50:57.747Z,80.90
2017-10-29T03:52:03.732Z,80.72
2017-10-29T03:53:10.230Z,80.75
2017-10-29T03:54:15.970Z,80.25
2017-10-29T03:55:21.709Z,79.46
2017-10-29T03:56:27.476Z,78.92
2017-10-29T03:57:33.302Z,77.72
2017-10-29T03:58:39.042Z,77.36
2017-10-29T03:59:44.811Z,75.68
2017-10-29T04:00:50.584Z,75.62
2017-10-29T04:01:57.101Z,74.93
2017-10-29T04:03:02.840Z,74.17
2017-10-29T04:04:08.571Z,74.03
2017-10-29T04:05:14.333Z,73.15
2017-10-29T04:06:20.085Z,72.84
2017-10-29T04:07:25.849Z,72.45
2017-10-29T04:08:32.352Z,72.23
2017-10-29T04:09:38.095Z,71.44
2017-10-29T04:10:43.848Z,71.35
2017-10-29T04:11:49.588Z,71.44
2017-10-29T04:12:55.673Z,71.00
2017-10-29T04:14:02.197Z,70.74
2017-10-29T04:15:07.966Z,70.56
2017-10-29T04:16:14.473Z,70.51
2017-10-29T04:17:20.229Z,69.12
2017-10-29T04:18:26.006Z,67.70
2017-10-29T04:19:32.522Z,67.13
2017-10-29T04:20:38.256Z,67.58
2017-10-29T04:21:44.012Z,67.38
2017-10-29T04:22:49.752Z,67.07
2017-10-29T04:23:55.515Z,66.99
2017-10-29T04:25:01.266Z,66.45
2017-10-29T04:26:06.660Z,67.38
2017-10-29T04:27:12.412Z,68.19
2017-10-29T04:28:18.158Z,68.12
2017-10-29T04:29:23.933Z,68.32
2017-10-29T04:30:30.508Z,68.16
2017-10-29T04:31:36.256Z,68.46
2017-10-29T04:32:42.021Z,69.06
2017-10-29T04:33:47.773Z,68.57
2017-10-29T04:34:53.561Z,68.78
2017-10-29T04:35:59.728Z,68.19
2017-10-29T04:37:05.482Z,67.87
2017-10-29T04:38:10.872Z,67.36
2017-10-29T04:39:17.400Z,67.22
2017-10-29T04:40:22.488Z,67.64
2017-10-29T04:41:28.280Z,67.42
2017-10-29T04:42:33.336Z,67.38
2017-10-29T04:43:39.846Z,67.70
2017-10-29T04:44:45.408Z,67.65
2017-10-29T04:45:50.845Z,67.65
2017-10-29T04:46:56.589Z,67.61
2017-10-29T04:48:02.333Z,67.74
2017-10-29T04:49:07.829Z,69.13
2017-10-29T04:50:13.565Z,70.80
2017-10-29T04:51:19.328Z,72.37
2017-10-29T04:52:25.075Z,73.59
2017-10-29T04:53:30.813Z,74.78
2017-10-29T04:54:36.557Z,76.62
2017-10-29T04:55:42.308Z,76.82
2017-10-29T04:56:48.071Z,77.11
2017-10-29T04:57:54.576Z,78.03
2017-10-29T04:59:00.322Z,77.25
2017-10-29T05:00:05.521Z,77.28
2017-10-29T05:01:11.281Z,77.58
2017-10-29T05:02:17.297Z,77.59
2017-10-29T05:03:23.807Z,77.66
2017-10-29T05:04:29.548Z,76.61
2017-10-29T05:05:34.949Z,76.50
2017-10-29T05:06:40.693Z,76.09
2017-10-29T05:07:46.465Z,74.31
2017-10-29T05:08:52.206Z,73.96
2017-10-29T05:09:57.942Z,72.35
2017-10-29T05:11:03.684Z,71.78
2017-10-29T05:12:09.436Z,71.75
2017-10-29T05:13:15.204Z,70.71
2017-10-29T05:14:21.713Z,69.75
2017-10-29T05:15:27.455Z,70.01
2017-10-29T05:16:33.196Z,68.72
2017-10-29T05:17:38.934Z,69.19
2017-10-29T05:18:44.734Z,69.39
2017-10-29T05:19:51.244Z,68.50
2017-10-29T05:20:56.998Z,68.74
2017-10-29T05:22:02.756Z,68.65
2017-10-29T05:23:09.264Z,68.42
2017-10-29T05:24:15.036Z,68.49
2017-10-29T05:25:20.781Z,68.14
2017-10-29T05:26:26.533Z,67.66
2017-10-29T05:27:32.292Z,67.92
2017-10-29T05:28:38.030Z,67.56
2017-10-29T05:29:43.798Z,67.27
2017-10-29T05:30:49.542Z,67.57
2017-10-29T05:31:55.284Z,67.77
2017-10-29T05:33:00.848Z,67.92
2017-10-29T05:34:06.592Z,67.62
2017-10-29T05:35:12.177Z,67.50
2017-10-29T05:36:18.681Z,67.43
2017-10-29T05:37:24.438Z,67.52
2017-10-29T05:38:30.182Z,67.57
2017-10-29T05:39:35.935Z,67.33
2017-10-29T05:40:41.513Z,66.69
2017-10-29T05:41:48.017Z,66.65
2017-10-29T05:42:53.577Z,66.85
2017-10-29T05:43:59.316Z,66.81
2017-10-29T05:45:04.186Z,66.97
2017-10-29T05:46:09.956Z,67.01
2017-10-29T05:47:15.729Z,66.11
2017-10-29T05:48:21.476Z,64.00
2017-10-29T05:49:26.867Z,63.68
2017-10-29T05:50:32.623Z,63.82
2017-10-29T05:51:38.393Z,63.45
2017-10-29T05:52:43.954Z,63.68
2017-10-29T05:53:50.466Z,63.59
2017-10-29T05:54:56.217Z,63.64
2017-10-29T05:56:02.715Z,63.74
2017-10-29T05:57:08.152Z,63.74
2017-10-29T05:58:13.900Z,63.98
2017-10-29T05:59:19.652Z,64.33
2017-10-29T06:00:25.216Z,64.19
2017-10-29T06:01:31.758Z,64.20
2017-10-29T06:02:37.538Z,64.10
2017-10-29T06:03:43.288Z,63.72
2017-10-29T06:04:49.080Z,63.30
2017-10-29T06:05:54.859Z,62.43
2017-10-29T06:07:01.365Z,61.58
2017-10-29T06:08:06.795Z,60.49
2017-10-29T06:09:12.571Z,60.81
2017-10-29T06:10:18.296Z,60.38
2017-10-29T06:11:24.053Z,60.74
2017-10-29T06:12:29.802Z,60.57
2017-10-29T06:13:35.589Z,60.65
2017-10-29T06:14:41.751Z,59.63
2017-10-29T06:15:47.493Z,59.33
2017-10-29T06:16:53.243Z,59.57
2017-10-29T06:17:58.996Z,59.62
2017-10-29T06:19:04.760Z,59.37
2017-10-29T06:20:10.174Z,59.28
2017-10-29T06:21:15.985Z,58.94
2017-10-29T06:22:22.279Z,58.58
2017-10-29T06:23:28.036Z,58.38
2017-10-29T06:24:33.803Z,58.77
2017-10-29T06:25:40.317Z,58.20
2017-10-29T06:26:46.059Z,58.21
2017-10-29T06:27:51.801Z,57.96
2017-10-29T06:28:57.540Z,58.35
2017-10-29T06:30:03.318Z,58.22
2017-10-29T06:31:09.075Z,58.33
2017-10-29T06:32:15.619Z,58.44
2017-10-29T06:33:21.367Z,58.14
2017-10-29T06:34:28.237Z,57.84
2017-10-29T06:35:34.777Z,57.73
2017-10-29T06:36:40.315Z,57.35
2017-10-29T06:37:46.075Z,57.07
2017-10-29T06:38:53.890Z,56.79
2017-10-29T06:39:59.430Z,56.57
2017-10-29T06:41:05.217Z,56.05
2017-10-29T06:42:10.965Z,56.17
2017-10-29T06:43:16.725Z,56.07
2017-10-29T06:44:23.046Z,56.25
2017-10-29T06:45:28.808Z,56.36
2017-10-29T06:46:34.621Z,55.95
2017-10-29T06:47:40.379Z,56.12
2017-10-29T06:48:46.133Z,55.82
2017-10-29T06:49:51.879Z,56.16
2017-10-29T06:50:57.699Z,55.68
2017-10-29T06:52:03.464Z,56.06
2017-10-29T06:53:09.216Z,55.84
2017-10-29T06:54:15.749Z,55.58
2017-10-29T06:55:21.136Z,55.58
2017-10-29T06:56:26.693Z,55.49
2017-10-29T06:57:32.469Z,55.87
2017-10-29T06:58:38.401Z,55.90
2017-10-29T06:59:44.164Z,55.93
2017-10-29T07:00:49.585Z,55.67
2017-10-29T07:01:54.978Z,55.67
2017-10-29T07:03:00.761Z,55.58
2017-10-29T07:04:06.550Z,55.47
2017-10-29T07:05:13.083Z,55.42
2017-10-29T07:06:18.860Z,55.50
2017-10-29T07:07:24.629Z,55.18
2017-10-29T07:08:30.401Z,55.32
2017-10-29T07:09:36.151Z,55.47
2017-10-29T07:10:41.907Z,55.23
2017-10-29T07:11:48.478Z,55.17
2017-10-29T07:12:54.637Z,54.76
2017-10-29T07:14:00.416Z,54.65
2017-10-29T07:15:06.162Z,54.64
2017-10-29T07:16:11.923Z,54.76
2017-10-29T07:17:17.675Z,54.80
2017-10-29T07:18:23.425Z,54.38
2017-10-29T07:19:29.980Z,54.50
2017-10-29T07:20:36.509Z,54.48
2017-10-29T07:21:42.254Z,54.23
2017-10-29T07:22:47.680Z,53.88
2017-10-29T07:23:53.425Z,53.96
2017-10-29T07:24:59.224Z,53.57
2017-10-29T07:26:04.633Z,53.82
2017-10-29T07:27:12.379Z,53.99
2017-10-29T07:28:18.128Z,53.93
2017-10-29T07:29:23.873Z,54.26
2017-10-29T07:30:29.658Z,53.93
2017-10-29T07:31:35.400Z,54.14
2017-10-29T07:32:40.829Z,53.98
2017-10-29T07:33:46.585Z,54.28
2017-10-29T07:34:52.339Z,54.25
2017-10-29T07:35:58.116Z,54.38
2017-10-29T07:37:03.927Z,54.42
2017-10-29T07:38:09.372Z,54.23
2017-10-29T07:39:15.148Z,54.20
2017-10-29T07:40:20.902Z,53.74
2017-10-29T07:41:26.028Z,53.49
2017-10-29T07:42:32.613Z,53.63
2017-10-29T07:43:38.370Z,53.57
2017-10-29T07:44:44.146Z,53.79
2017-10-29T07:45:49.918Z,53.66
2017-10-29T07:46:56.461Z,53.71
2017-10-29T07:48:02.221Z,53.66
2017-10-29T07:49:08.755Z,53.30
2017-10-29T07:50:14.506Z,53.14
2017-10-29T07:51:20.276Z,53.01
2017-10-29T07:52:26.797Z,52.46
2017-10-29T07:53:32.549Z,52.29
2017-10-29T07:54:38.292Z,51.86
2017-10-29T07:55:44.821Z,51.40
2017-10-29T07:56:50.568Z,51.16
2017-10-29T07:57:56.341Z,50.54
2017-10-29T07:59:02.853Z,50.30
2017-10-29T08:00:08.596Z,49.89
2017-10-29T08:01:14.338Z,49.41
2017-10-29T08:02:20.087Z,49.26
2017-10-29T08:03:25.860Z,49.54
2017-10-29T08:04:32.389Z,49.99
2017-10-29T08:05:38.128Z,50.73
2017-10-29T08:06:43.881Z,51.01
2017-10-29T08:07:49.660Z,51.85
2017-10-29T08:08:55.514Z,52.46
2017-10-29T08:10:02.039Z,52.72
2017-10-29T08:11:07.117Z,52.94
2017-10-29T08:12:12.862Z,52.99
2017-10-29T08:13:18.609Z,53.50
2017-10-29T08:14:24.055Z,54.16
2017-10-29T08:15:29.792Z,54.20
2017-10-29T08:16:35.540Z,54.29
2017-10-29T08:17:41.284Z,54.68
2017-10-29T08:18:48.402Z,55.03
2017-10-29T08:19:54.188Z,55.31
2017-10-29T08:20:59.936Z,56.09
2017-10-29T08:22:05.733Z,56.81
2017-10-29T08:23:11.517Z,57.61
2017-10-29T08:24:17.281Z,58.51
2017-10-29T08:25:22.868Z,59.39
2017-10-29T08:26:28.632Z,59.51
2017-10-29T08:27:34.381Z,59.57
2017-10-29T08:28:40.141Z,60.73
2017-10-29T08:29:45.892Z,60.45
2017-10-29T08:30:51.665Z,60.36
2017-10-29T08:31:57.411Z,60.50
2017-10-29T08:33:04.030Z,60.89
2017-10-29T08:34:09.790Z,61.14
2017-10-29T08:35:16.309Z,61.50
2017-10-29T08:36:22.134Z,61.63
2017-10-29T08:37:27.907Z,61.56
2017-10-29T08:38:35.173Z,61.36
2017-10-29T08:39:40.972Z,61.46
2017-10-29T08:40:47.510Z,62.34
2017-10-29T08:41:53.299Z,64.27
2017-10-29T08:42:59.121Z,65.60
2017-10-29T08:44:04.923Z,66.58
2017-10-29T08:45:10.681Z,68.02
2017-10-29T08:46:17.219Z,68.47
2017-10-29T08:47:22.817Z,68.89
2017-10-29T08:48:28.591Z,69.97
2017-10-29T08:49:34.474Z,71.23
2017-10-29T08:50:41.157Z,72.26
2017-10-29T08:51:46.922Z,73.21
2017-10-29T08:52:52.714Z,73.94
2017-10-29T08:53:59.705Z,73.13
2017-10-29T08:55:07.018Z,72.52
2017-10-29T08:56:12.888Z,71.42
2017-10-29T08:57:18.672Z,71.62
2017-10-29T08:58:25.601Z,71.82
2017-10-29T08:59:31.603Z,70.98
2017-10-29T09:00:39.287Z,70.68
2017-10-29T09:01:45.234Z,69.72
2017-10-29T09:02:51.194Z,69.30
2017-10-29T09:03:57.047Z,68.83
2017-10-29T09:05:03.157Z,68.61
2017-10-29T09:06:09.960Z,68.07
2017-10-29T09:07:15.936Z,67.42
2017-10-29T09:08:22.343Z,67.59
2017-10-29T09:09:29.567Z,66.97
2017-10-29T09:10:35.999Z,66.62
2017-10-29T09:11:41.933Z,65.68
2017-10-29T09:12:47.994Z,64.15
2017-10-29T09:13:54.229Z,63.18
2017-10-29T09:15:00.995Z,62.51
2017-10-29T09:16:07.330Z,61.45
2017-10-29T09:17:14.251Z,60.48
2017-10-29T09:18:20.664Z,60.08
2017-10-29T09:19:27.242Z,59.83
2017-10-29T09:20:33.504Z,59.20
2017-10-29T09:21:39.619Z,58.83
2017-10-29T09:22:46.408Z,58.84
2017-10-29T09:23:53.428Z,58.00
2017-10-29T09:25:00.203Z,57.07
2017-10-29T09:26:08.136Z,57.00
2017-10-29T09:27:14.128Z,56.33
2017-10-29T09:28:20.285Z,56.42
2017-10-29T09:29:26.964Z,55.86
2017-10-29T09:30:33.673Z,55.64
2017-10-29T09:31:40.347Z,55.75
2017-10-29T09:32:46.215Z,55.45
2017-10-29T09:33:52.157Z,55.34
2017-10-29T09:34:59.041Z,54.99
2017-10-29T09:36:04.999Z,54.83
2017-10-29T09:37:11.858Z,53.58
2017-10-29T09:38:18.166Z,53.50
2017-10-29T09:39:25.192Z,53.44
2017-10-29T09:40:31.396Z,53.44
2017-10-29T09:41:38.178Z,53.79
2017-10-29T09:42:44.280Z,54.04
2017-10-29T09:43:50.570Z,53.44
2017-10-29T09:44:56.879Z,53.34
2017-10-29T09:46:03.260Z,53.42
2017-10-29T09:47:10.124Z,53.50
2017-10-29T09:48:18.433Z,53.08
2017-10-29T09:49:25.582Z,52.82
2017-10-29T09:50:33.164Z,53.28
2017-10-29T09:51:40.568Z,53.32
2017-10-29T09:52:46.876Z,52.84
2017-10-29T09:53:54.008Z,52.45
2017-10-29T09:55:00.131Z,52.10
2017-10-29T09:56:07.445Z,52.06
2017-10-29T09:57:15.443Z,52.53
2017-10-29T09:58:21.603Z,51.96
2017-10-29T09:59:28.131Z,52.53
2017-10-29T10:00:35.097Z,52.83
2017-10-29T10:01:41.116Z,53.03
2017-10-29T10:02:47.146Z,52.35
2017-10-29T10:03:54.943Z,52.85
2017-10-29T10:05:02.106Z,52.89
2017-10-29T10:06:08.906Z,52.79
2017-10-29T10:07:14.996Z,52.77
2017-10-29T10:08:21.386Z,52.68
2017-10-29T10:09:28.479Z,53.13
2017-10-29T10:10:36.742Z,52.97
2017-10-29T10:11:43.118Z,53.24
2017-10-29T10:12:50.988Z,53.35
2017-10-29T10:13:58.137Z,53.53
2017-10-29T10:15:04.511Z,53.99
2017-10-29T10:16:11.897Z,53.86
2017-10-29T10:17:18.370Z,54.29
2017-10-29T10:18:25.145Z,54.31
2017-10-29T10:19:31.558Z,54.62
2017-10-29T10:20:39.627Z,54.81
2017-10-29T10:21:45.883Z,55.28
2017-10-29T10:22:52.061Z,55.29
2017-10-29T10:23:58.493Z,55.19
2017-10-29T10:25:06.126Z,55.50
2017-10-29T10:26:13.600Z,55.80
2017-10-29T10:27:19.758Z,55.63
2017-10-29T10:28:26.122Z,55.34
2017-10-29T10:29:36.102Z,55.11
2017-10-29T10:30:42.921Z,55.25
2017-10-29T10:31:49.721Z,54.89
2017-10-29T10:32:59.328Z,54.86
2017-10-29T10:34:06.430Z,54.81
2017-10-29T10:35:13.736Z,55.10
2017-10-29T10:36:20.756Z,55.35
2017-10-29T10:37:28.877Z,55.69
2017-10-29T10:38:35.304Z,55.42
2017-10-29T10:39:41.432Z,55.08
2017-10-29T10:40:51.378Z,54.68
2017-10-29T10:41:58.790Z,54.56
2017-10-29T10:43:05.308Z,54.01
2017-10-29T10:44:13.127Z,53.58
2017-10-29T10:45:19.479Z,53.32
2017-10-29T10:46:25.669Z,53.59
2017-10-29T10:47:31.932Z,53.59
2017-10-29T10:48:39.433Z,53.54
2017-10-29T10:49:45.414Z,53.74
2017-10-29T10:50:52.147Z,54.09
2017-10-29T10:51:58.175Z,53.76
2017-10-29T10:53:06.597Z,53.71
2017-10-29T10:54:13.382Z,53.69
2017-10-29T10:55:20.503Z,53.66
2017-10-29T10:56:26.565Z,54.48
2017-10-29T10:57:32.852Z,54.97
2017-10-29T10:58:40.936Z,54.82
2017-10-29T10:59:47.689Z,54.43
2017-10-29T11:00:54.131Z,54.46
2017-10-29T11:02:00.804Z,54.50
2017-10-29T11:03:07.882Z,54.70
2017-10-29T11:04:14.151Z,54.34
2017-10-29T11:05:20.536Z,53.23
2017-10-29T11:06:27.702Z,53.55
2017-10-29T11:07:33.722Z,53.75
2017-10-29T11:08:40.150Z,54.07
2017-10-29T11:09:46.224Z,54.12
2017-10-29T11:10:53.087Z,54.27
2017-10-29T11:11:59.300Z,54.56
2017-10-29T11:13:05.391Z,54.54
2017-10-29T11:14:11.521Z,54.67
2017-10-29T11:15:17.660Z,54.80
2017-10-29T11:16:23.824Z,54.32
2017-10-29T11:17:29.999Z,54.31
2017-10-29T11:18:36.188Z,54.24
2017-10-29T11:19:42.442Z,54.43
2017-10-29T11:20:48.584Z,54.50
2017-10-29T11:21:54.876Z,53.98
2017-10-29T11:23:00.959Z,53.50
2017-10-29T11:24:07.660Z,53.39
2017-10-29T11:25:14.134Z,53.46
2017-10-29T11:26:21.410Z,53.12
2017-10-29T11:27:29.270Z,53.35
2017-10-29T11:28:35.380Z,52.67
2017-10-29T11:29:41.603Z,53.01
2017-10-29T11:30:47.743Z,53.25
2017-10-29T11:31:53.910Z,53.05
2017-10-29T11:32:59.930Z,53.14
2017-10-29T11:34:07.226Z,53.31
2017-10-29T11:35:13.522Z,53.45
2017-10-29T11:36:20.810Z,53.32
2017-10-29T11:37:28.447Z,53.56
2017-10-29T11:38:35.360Z,53.56
2017-10-29T11:39:41.272Z,53.06
2017-10-29T11:40:47.715Z,53.18
2017-10-29T11:41:54.549Z,53.27
2017-10-29T11:43:01.793Z,53.50
2017-10-29T11:44:07.803Z,53.62
2017-10-29T11:45:13.828Z,53.57
2017-10-29T11:46:19.504Z,53.77
2017-10-29T11:47:26.270Z,53.41
2017-10-29T11:48:33.189Z,53.09
2017-10-29T11:49:39.935Z,53.04
2017-10-29T11:50:46.580Z,53.12
2017-10-29T11:51:52.945Z,53.00
2017-10-29T11:53:00.023Z,53.47
2017-10-29T11:54:06.319Z,53.57
2017-10-29T11:55:13.449Z,53.47
2017-10-29T11:56:19.772Z,53.91
2017-10-29T11:57:26.248Z,54.41
2017-10-29T11:58:33.216Z,54.57
2017-10-29T11:59:39.260Z,54.53
2017-10-29T12:00:45.359Z,54.29
2017-10-29T12:01:53.562Z,54.33
2017-10-29T12:03:00.938Z,54.56
2017-10-29T12:04:07.978Z,54.80
2017-10-29T12:05:17.178Z,54.51
2017-10-29T12:06:24.576Z,54.37
2017-10-29T12:07:32.561Z,54.40
2017-10-29T12:08:38.820Z,54.31
2017-10-29T12:09:44.804Z,54.18
2017-10-29T12:10:50.953Z,54.27
2017-10-29T12:11:58.086Z,54.09
2017-10-29T12:13:04.271Z,54.24
2017-10-29T12:14:16.221Z,54.52
2017-10-29T12:15:22.310Z,54.08
2017-10-29T12:16:30.562Z,53.95
2017-10-29T12:17:36.688Z,53.86
2017-10-29T12:18:42.769Z,53.93
2017-10-29T12:19:48.788Z,54.12
2017-10-29T12:20:54.828Z,54.36
2017-10-29T12:22:00.869Z,54.49
2017-10-29T12:23:07.628Z,54.07
2017-10-29T12:24:13.793Z,54.04
2017-10-29T12:25:20.053Z,54.17
2017-10-29T12:26:26.053Z,54.01
2017-10-29T12:27:34.289Z,53.97
2017-10-29T12:28:41.862Z,54.00
2017-10-29T12:29:53.459Z,54.12
2017-10-29T12:30:59.598Z,54.19
2017-10-29T12:32:05.908Z,53.95
2017-10-29T12:33:14.751Z,53.58
2017-10-29T12:34:21.461Z,53.85
2017-10-29T12:35:28.044Z,53.85
2017-10-29T12:36:35.051Z,53.94
2017-10-29T12:37:40.713Z,54.45
2017-10-29T12:38:47.631Z,54.30
2017-10-29T12:39:53.726Z,54.25
2017-10-29T12:41:00.554Z,54.28
2017-10-29T12:42:06.702Z,54.55
2017-10-29T12:43:12.799Z,54.58
2017-10-29T12:44:20.560Z,54.73
2017-10-29T12:45:26.629Z,54.80
2017-10-29T12:46:32.613Z,54.46
2017-10-29T12:47:39.325Z,54.63
2017-10-29T12:48:45.260Z,54.77
2017-10-29T12:49:51.304Z,54.85
2017-10-29T12:50:57.354Z,54.82
2017-10-29T12:52:04.162Z,54.66
2017-10-29T12:53:10.677Z,54.42
2017-10-29T12:54:17.485Z,54.44
2017-10-29T12:55:23.852Z,54.84
2017-10-29T12:56:29.849Z,55.29
2017-10-29T12:57:36.748Z,55.39
2017-10-29T12:58:42.778Z,55.71
2017-10-29T12:59:49.615Z,55.64
2017-10-29T13:00:55.589Z,55.45
2017-10-29T13:02:02.544Z,55.38
2017-10-29T13:03:08.945Z,55.19
2017-10-29T13:04:15.800Z,54.71
2017-10-29T13:05:23.458Z,54.50
2017-10-29T13:06:29.787Z,54.65
2017-10-29T13:07:36.664Z,54.79
2017-10-29T13:08:43.624Z,54.87
2017-10-29T13:09:49.824Z,54.80
2017-10-29T13:10:57.088Z,54.48
2017-10-29T13:12:03.138Z,54.23
2017-10-29T13:13:09.519Z,54.29
2017-10-29T13:14:15.770Z,54.24
2017-10-29T13:15:22.002Z,54.12
2017-10-29T13:16:29.166Z,54.02
2017-10-29T13:17:35.346Z,54.07
2017-10-29T13:18:41.587Z,53.86
2017-10-29T13:19:48.400Z,53.96
2017-10-29T13:20:54.596Z,53.99
2017-10-29T13:22:01.823Z,54.14
2017-10-29T13:23:08.221Z,54.24
2017-10-29T13:24:14.597Z,54.08
2017-10-29T13:25:26.978Z,53.51
2017-10-29T13:26:34.166Z,53.39
2017-10-29T13:27:40.330Z,52.95
2017-10-29T13:28:46.512Z,52.63
2017-10-29T13:29:54.614Z,52.60
2017-10-29T13:31:00.655Z,52.39
2017-10-29T13:32:06.755Z,52.29
2017-10-29T13:33:13.076Z,52.35
2017-10-29T13:34:19.315Z,52.14
2017-10-29T13:35:25.543Z,52.17
2017-10-29T13:36:31.812Z,52.17
2017-10-29T13:37:37.937Z,52.43
2017-10-29T13:38:44.233Z,52.52
2017-10-29T13:39:50.406Z,52.62
2017-10-29T13:40:56.205Z,52.78
2017-10-29T13:42:03.819Z,53.07
2017-10-29T13:43:11.308Z,53.54
2017-10-29T13:44:17.593Z,53.68
2017-10-29T13:45:23.672Z,53.97
2017-10-29T13:46:30.821Z,54.41
2017-10-29T13:47:37.053Z,54.62
2017-10-29T13:48:43.271Z,55.00
2017-10-29T13:49:49.551Z,55.42
2017-10-29T13:50:55.576Z,55.35
2017-10-29T13:52:02.013Z,55.24
2017-10-29T13:53:08.847Z,55.44
2017-10-29T13:54:15.198Z,56.02
2017-10-29T13:55:22.140Z,56.12
2017-10-29T13:56:28.147Z,56.33
2017-10-29T13:57:34.155Z,56.62
2017-10-29T13:58:40.243Z,56.43
2017-10-29T13:59:47.091Z,56.59
2017-10-29T14:00:53.881Z,56.82
2017-10-29T14:02:00.039Z,56.86
2017-10-29T14:03:06.752Z,57.10
2017-10-29T14:04:13.844Z,57.24
2017-10-29T14:05:20.651Z,57.20
2017-10-29T14:06:27.205Z,57.18
2017-10-29T14:07:33.089Z,57.07
2017-10-29T14:08:39.065Z,57.44
2017-10-29T14:09:45.101Z,56.91
2017-10-29T14:10:51.092Z,57.13
2017-10-29T14:11:57.209Z,57.06